TDPD/DOM METAR and TAF weather

Enter ICAO airport designator
Station Type Date Time Source
TDPD METAR 2020/09/21 22:00 UTC NOAA

TDPD 212200Z 12002KT 9999 SCT018 28/26 Q1012


Station Type Date Time Source
TDPD Decoded METAR 2020/09/21 22:00 UTC NOAA

Melville Hall Airport, Dominica (TDPD) 15-32N 061-18W 14M
Sep 21, 2020 - 06:00 PM EDT / 2020.09.21 2200 UTC
Wind: from the ESE (120 degrees) at 2 MPH (2 KT):0
Visibility: greater than 7 mile(s):0
Sky conditions: partly cloudy
Temperature: 82 F (28 C)
Dew Point: 78 F (26 C)
Relative Humidity: 88%
Pressure (altimeter): 29.88 in. Hg (1012 hPa)
ob: TDPD 212200Z 12002KT 9999 SCT018 28/26 Q1012
cycle: 22

Station Type Date Time Source
TDPD TAF 2020/09/21 18:41 UTC NOAA

TAF TDPD 211700Z 2118/2218 12008KT 9999 SCT020 PROB30
TEMPO 2118/2121 SHRA BKN015

Example: see airport list